createdAt,value
2023-05-21T00:02:47.839Z,28.34
2023-05-21T00:07:53.285Z,28.30
2023-05-21T00:12:57.474Z,28.31
2023-05-21T00:18:00.849Z,28.30
2023-05-21T00:23:03.899Z,28.30
2023-05-21T00:28:08.089Z,28.29
2023-05-21T00:33:13.847Z,28.26
2023-05-21T00:38:17.974Z,28.25
2023-05-21T00:43:26.051Z,28.21
2023-05-21T00:48:28.915Z,28.11
2023-05-21T00:53:31.735Z,28.02
2023-05-21T00:58:38.502Z,27.98
2023-05-21T01:03:41.782Z,27.95
2023-05-21T01:08:45.400Z,27.90
2023-05-21T01:13:51.267Z,27.82
2023-05-21T01:18:54.200Z,27.78
2023-05-21T01:23:58.690Z,27.68
2023-05-21T01:29:01.513Z,27.56
2023-05-21T01:34:08.293Z,27.57
2023-05-21T01:39:18.611Z,27.55
2023-05-21T01:44:23.166Z,27.51
2023-05-21T01:49:26.646Z,27.48
2023-05-21T01:54:30.790Z,27.44
2023-05-21T01:59:33.954Z,27.41
2023-05-21T02:04:37.234Z,27.36
2023-05-21T02:09:41.582Z,27.30
2023-05-21T02:14:44.421Z,27.26
2023-05-21T02:19:47.324Z,27.22
2023-05-21T02:24:51.462Z,27.18
2023-05-21T02:29:54.239Z,27.12
2023-05-21T02:34:58.508Z,27.09
2023-05-21T02:40:03.946Z,27.03
2023-05-21T02:45:08.108Z,26.98
2023-05-21T02:50:11.308Z,26.94
2023-05-21T02:55:24.116Z,26.88
2023-05-21T03:00:27.237Z,26.85
2023-05-21T03:05:30.155Z,26.78
2023-05-21T03:10:34.294Z,26.71
2023-05-21T03:15:38.812Z,26.68
2023-05-21T03:20:43.794Z,26.62
2023-05-21T03:25:48.400Z,26.58
2023-05-21T03:30:52.011Z,26.55
2023-05-21T03:36:13.437Z,26.53
2023-05-21T03:41:17.684Z,26.48
2023-05-21T03:46:26.240Z,26.45
2023-05-21T03:51:38.334Z,26.42
2023-05-21T03:56:42.740Z,26.37
2023-05-21T04:01:45.787Z,26.37
2023-05-21T04:06:54.280Z,26.34
2023-05-21T04:11:59.888Z,26.30
2023-05-21T04:17:05.223Z,26.26
2023-05-21T04:22:08.171Z,26.24
2023-05-21T04:27:14.164Z,26.22
2023-05-21T04:32:18.319Z,26.22
2023-05-21T04:37:24.509Z,26.20
2023-05-21T04:42:30.017Z,26.16
2023-05-21T04:47:35.334Z,26.14
2023-05-21T04:52:41.144Z,26.11
2023-05-21T04:57:45.494Z,26.08
2023-05-21T05:02:48.420Z,26.06
2023-05-21T05:07:51.661Z,26.06
2023-05-21T05:12:55.972Z,26.04
2023-05-21T05:17:58.834Z,26.02
2023-05-21T05:23:01.724Z,26.00
2023-05-21T05:28:06.105Z,26.01
2023-05-21T05:33:09.049Z,26.01
2023-05-21T05:38:11.944Z,25.98
2023-05-21T05:43:16.405Z,25.97
2023-05-21T05:48:19.917Z,25.97
2023-05-21T05:53:23.050Z,25.96
2023-05-21T05:58:28.097Z,25.96
2023-05-21T06:03:48.693Z,25.97
2023-05-21T06:08:54.535Z,25.98
2023-05-21T06:14:00.851Z,25.99
2023-05-21T06:19:03.836Z,25.96
2023-05-21T06:24:07.551Z,25.98
2023-05-21T06:29:13.042Z,25.96
2023-05-21T06:34:17.278Z,25.97
2023-05-21T06:39:20.252Z,26.00
2023-05-21T06:44:25.412Z,26.00
2023-05-21T06:49:43.412Z,26.02
2023-05-21T06:54:46.335Z,25.99
2023-05-21T06:59:50.572Z,26.00
2023-05-21T07:04:55.601Z,26.02
2023-05-21T07:09:58.466Z,25.36
2023-05-21T07:15:03.299Z,24.54
2023-05-21T07:20:07.831Z,24.41
2023-05-21T07:25:11.698Z,24.24
2023-05-21T07:30:16.550Z,24.96
2023-05-21T07:35:19.865Z,24.25
2023-05-21T07:40:23.378Z,24.25
2023-05-21T07:45:28.516Z,25.44
2023-05-21T07:50:32.397Z,25.66
2023-05-21T07:55:36.474Z,25.77
2023-05-21T08:00:47.115Z,25.69
2023-05-21T08:05:50.792Z,25.75
2023-05-21T08:10:53.773Z,25.82
2023-05-21T08:16:00.693Z,25.84
2023-05-21T08:21:04.375Z,25.99
2023-05-21T08:26:08.491Z,25.91
2023-05-21T08:31:14.776Z,25.98
2023-05-21T08:36:17.725Z,26.10
2023-05-21T08:41:27.462Z,26.01
2023-05-21T08:46:35.044Z,26.05
2023-05-21T08:51:38.637Z,26.13
2023-05-21T08:56:45.706Z,25.92
2023-05-21T09:01:51.018Z,25.83
2023-05-21T09:07:02.823Z,25.87
2023-05-21T09:12:24.991Z,25.96
2023-05-21T09:17:29.418Z,25.88
2023-05-21T09:22:42.741Z,26.02
2023-05-21T09:27:45.837Z,26.05
2023-05-21T09:32:56.299Z,26.09
2023-05-21T09:37:59.351Z,26.06
2023-05-21T09:43:02.774Z,26.09
2023-05-21T09:48:07.363Z,26.07
2023-05-21T09:53:13.162Z,26.03
2023-05-21T09:58:16.181Z,26.02
2023-05-21T10:03:24.528Z,26.05
2023-05-21T10:10:02.140Z,25.53
2023-05-21T10:15:09.347Z,26.27
2023-05-21T10:20:13.236Z,26.23
2023-05-21T10:25:18.386Z,26.27
2023-05-21T10:30:22.659Z,25.60
2023-05-21T10:35:26.148Z,25.87
2023-05-21T10:40:30.658Z,26.08
2023-05-21T10:45:49.344Z,26.30
2023-05-21T10:51:19.838Z,26.42
2023-05-21T10:56:26.450Z,26.52
2023-05-21T11:01:33.997Z,26.53
2023-05-21T11:06:37.199Z,26.53
2023-05-21T11:11:48.532Z,26.49
2023-05-21T11:16:51.545Z,26.42
2023-05-21T11:21:56.696Z,26.35
2023-05-21T11:27:06.657Z,26.37
2023-05-21T11:32:11.929Z,26.30
2023-05-21T11:37:29.019Z,26.40
2023-05-21T11:42:34.737Z,26.38
2023-05-21T11:47:37.941Z,26.37
2023-05-21T11:52:41.765Z,26.32
2023-05-21T11:57:47.964Z,26.31
2023-05-21T12:02:53.357Z,26.37
2023-05-21T12:07:58.481Z,26.26
2023-05-21T12:13:05.400Z,26.29
2023-05-21T12:18:08.434Z,25.46
2023-05-21T12:23:20.404Z,26.02
2023-05-21T12:28:25.657Z,26.14
2023-05-21T12:33:35.476Z,26.25
2023-05-21T12:38:38.705Z,26.25
2023-05-21T12:43:43.157Z,26.27
2023-05-21T12:48:55.396Z,26.26
2023-05-21T12:53:58.564Z,26.44
2023-05-21T12:59:03.119Z,26.44
2023-05-21T13:04:07.739Z,26.25
2023-05-21T13:09:10.947Z,26.29
2023-05-21T13:14:15.337Z,26.43
2023-05-21T13:19:18.194Z,26.61
2023-05-21T13:24:21.233Z,26.69
2023-05-21T13:29:25.702Z,26.64
2023-05-21T13:34:28.646Z,26.63
2023-05-21T13:39:31.545Z,26.63
2023-05-21T13:44:36.604Z,26.61
2023-05-21T13:49:40.055Z,26.63
2023-05-21T13:54:43.612Z,26.68
2023-05-21T13:59:47.992Z,26.59
2023-05-21T14:04:51.114Z,26.57
2023-05-21T14:09:54.006Z,26.46
2023-05-21T14:14:58.572Z,26.40
2023-05-21T14:20:01.485Z,26.37
2023-05-21T14:25:04.873Z,26.30
2023-05-21T14:30:10.743Z,26.48
2023-05-21T14:35:13.825Z,26.68
2023-05-21T14:40:16.745Z,26.60
2023-05-21T14:45:21.094Z,26.70
2023-05-21T14:50:24.088Z,26.76
2023-05-21T14:55:27.278Z,26.78
2023-05-21T15:00:34.618Z,26.92
2023-05-21T15:05:38.267Z,26.90
2023-05-21T15:10:41.456Z,26.48
2023-05-21T15:15:46.278Z,26.66
2023-05-21T15:20:49.191Z,26.56
2023-05-21T15:25:52.093Z,26.45
2023-05-21T15:30:56.400Z,26.47
2023-05-21T15:35:59.429Z,26.53
2023-05-21T15:41:02.394Z,26.47
2023-05-21T15:46:07.434Z,26.48
2023-05-21T15:51:10.294Z,26.40
2023-05-21T15:56:13.290Z,26.50
2023-05-21T16:01:17.560Z,26.70
2023-05-21T16:06:20.796Z,26.77
2023-05-21T16:11:23.602Z,27.02
2023-05-21T16:16:28.045Z,27.18
2023-05-21T16:21:31.935Z,27.16
2023-05-21T16:26:35.020Z,27.13
2023-05-21T16:31:39.538Z,27.00
2023-05-21T16:36:42.616Z,26.92
2023-05-21T16:41:45.498Z,26.92
2023-05-21T16:46:49.806Z,26.92
2023-05-21T16:51:52.854Z,27.06
2023-05-21T16:56:56.120Z,27.01
2023-05-21T17:02:00.553Z,26.92
2023-05-21T17:07:04.040Z,27.10
2023-05-21T17:12:07.864Z,27.04
2023-05-21T17:17:12.340Z,27.02
2023-05-21T17:22:15.557Z,27.07
2023-05-21T17:27:18.591Z,27.04
2023-05-21T17:32:23.048Z,27.07
2023-05-21T17:37:26.012Z,27.14
2023-05-21T17:42:28.976Z,27.15
2023-05-21T17:47:34.647Z,27.17
2023-05-21T17:52:37.571Z,27.32
2023-05-21T17:57:41.105Z,27.14
2023-05-21T18:02:45.574Z,27.20
2023-05-21T18:07:48.786Z,27.23
2023-05-21T18:12:51.550Z,27.28
2023-05-21T18:17:55.970Z,27.29
2023-05-21T18:22:58.894Z,27.53
2023-05-21T18:28:01.715Z,27.20
2023-05-21T18:33:08.232Z,27.27
2023-05-21T18:38:11.472Z,27.28
2023-05-21T18:43:14.676Z,27.33
2023-05-21T18:48:18.869Z,27.35
2023-05-21T18:53:21.960Z,27.37
2023-05-21T18:58:24.821Z,27.47
2023-05-21T19:03:29.094Z,27.50
2023-05-21T19:08:32.327Z,27.55
2023-05-21T19:13:35.760Z,27.56
2023-05-21T19:18:42.055Z,27.56
2023-05-21T19:23:53.364Z,27.57
2023-05-21T19:28:56.826Z,26.95
2023-05-21T19:34:01.367Z,26.99
2023-05-21T19:39:05.151Z,27.13
2023-05-21T19:44:08.228Z,27.30
2023-05-21T19:49:14.086Z,27.89
2023-05-21T19:54:17.866Z,28.07
2023-05-21T19:59:20.795Z,28.15
2023-05-21T20:04:25.172Z,28.19
2023-05-21T20:09:28.129Z,28.26
2023-05-21T20:14:33.442Z,28.25
2023-05-21T20:19:37.843Z,28.32
2023-05-21T20:24:40.897Z,28.37
2023-05-21T20:29:43.904Z,28.34
2023-05-21T20:35:02.018Z,28.31
2023-05-21T20:40:07.077Z,28.36
2023-05-21T20:45:12.774Z,28.43
2023-05-21T20:50:18.334Z,28.50
2023-05-21T20:55:21.769Z,28.41
2023-05-21T21:00:24.868Z,28.47
2023-05-21T21:05:29.238Z,28.44
2023-05-21T21:10:32.123Z,28.49
2023-05-21T21:15:35.273Z,28.48
2023-05-21T21:20:41.267Z,28.55
2023-05-21T21:25:44.502Z,28.51
2023-05-21T21:30:47.490Z,28.55
2023-05-21T21:35:51.719Z,28.55
2023-05-21T21:40:55.021Z,28.55
2023-05-21T21:45:58.364Z,28.56
2023-05-21T21:51:02.702Z,28.55
2023-05-21T21:56:06.023Z,28.56
2023-05-21T22:01:08.893Z,28.55
2023-05-21T22:06:13.109Z,28.56
2023-05-21T22:11:16.109Z,28.38
2023-05-21T22:16:19.040Z,28.23
2023-05-21T22:21:26.893Z,28.36
2023-05-21T22:26:29.706Z,28.39
2023-05-21T22:31:32.595Z,28.34
2023-05-21T22:36:38.814Z,28.31
2023-05-21T22:41:42.017Z,28.27
2023-05-21T22:46:44.885Z,28.24
2023-05-21T22:51:49.526Z,28.18
2023-05-21T22:56:52.288Z,28.11
2023-05-21T23:01:55.419Z,28.04
2023-05-21T23:06:59.805Z,28.05
2023-05-21T23:12:02.708Z,28.07
2023-05-21T23:17:07.455Z,28.02
2023-05-21T23:22:11.626Z,28.02
2023-05-21T23:27:14.750Z,27.97
2023-05-21T23:32:17.859Z,28.00
2023-05-21T23:37:22.338Z,27.94
2023-05-21T23:42:25.601Z,27.90
2023-05-21T23:47:28.454Z,27.84
2023-05-21T23:52:32.692Z,27.84
2023-05-21T23:57:35.806Z,27.80
